sensor_id;sensor_type;location;lat;lon;timestamp;P1;durP1;ratioP1;P2;durP2;ratioP2
82560;SDS011;72228;51.208;10.468;2023-11-22T00:00:54;3.88;;;2.25;;
82560;SDS011;72228;51.208;10.468;2023-11-22T00:03:20;2.30;;;1.52;;
82560;SDS011;72228;51.208;10.468;2023-11-22T00:05:46;2.33;;;1.45;;
82560;SDS011;72228;51.208;10.468;2023-11-22T00:08:12;0.60;;;0.60;;
82560;SDS011;72228;51.208;10.468;2023-11-22T00:10:38;2.55;;;2.10;;
82560;SDS011;72228;51.208;10.468;2023-11-22T00:13:04;4.55;;;2.10;;
82560;SDS011;72228;51.208;10.468;2023-11-22T00:15:30;5.93;;;2.10;;
82560;SDS011;72228;51.208;10.468;2023-11-22T00:17:56;4.10;;;2.25;;
82560;SDS011;72228;51.208;10.468;2023-11-22T00:20:29;2.03;;;1.65;;
82560;SDS011;72228;51.208;10.468;2023-11-22T00:22:56;4.15;;;2.05;;
82560;SDS011;72228;51.208;10.468;2023-11-22T00:25:22;2.88;;;1.67;;
82560;SDS011;72228;51.208;10.468;2023-11-22T00:27:48;1.73;;;1.55;;
82560;SDS011;72228;51.208;10.468;2023-11-22T00:30:14;4.00;;;1.80;;
82560;SDS011;72228;51.208;10.468;2023-11-22T00:32:40;3.05;;;1.90;;
82560;SDS011;72228;51.208;10.468;2023-11-22T00:35:08;4.18;;;2.45;;
82560;SDS011;72228;51.208;10.468;2023-11-22T00:37:52;1.27;;;0.90;;
82560;SDS011;72228;51.208;10.468;2023-11-22T00:40:18;3.28;;;2.10;;
82560;SDS011;72228;51.208;10.468;2023-11-22T00:42:45;1.77;;;1.63;;
82560;SDS011;72228;51.208;10.468;2023-11-22T00:45:11;4.07;;;1.67;;
82560;SDS011;72228;51.208;10.468;2023-11-22T00:47:37;4.22;;;2.08;;
82560;SDS011;72228;51.208;10.468;2023-11-22T00:50:04;4.68;;;2.72;;
82560;SDS011;72228;51.208;10.468;2023-11-22T00:52:30;4.90;;;2.67;;
82560;SDS011;72228;51.208;10.468;2023-11-22T00:54:57;6.47;;;2.30;;
82560;SDS011;72228;51.208;10.468;2023-11-22T00:57:23;6.88;;;2.65;;
82560;SDS011;72228;51.208;10.468;2023-11-22T00:59:49;3.78;;;2.25;;
82560;SDS011;72228;51.208;10.468;2023-11-22T01:02:15;5.60;;;2.83;;
82560;SDS011;72228;51.208;10.468;2023-11-22T01:04:41;4.18;;;2.03;;
82560;SDS011;72228;51.208;10.468;2023-11-22T01:07:07;5.07;;;2.80;;
82560;SDS011;72228;51.208;10.468;2023-11-22T01:09:33;3.65;;;2.15;;
82560;SDS011;72228;51.208;10.468;2023-11-22T01:12:00;3.33;;;1.77;;
82560;SDS011;72228;51.208;10.468;2023-11-22T01:14:26;3.55;;;2.10;;
82560;SDS011;72228;51.208;10.468;2023-11-22T01:16:52;3.83;;;2.30;;
82560;SDS011;72228;51.208;10.468;2023-11-22T01:19:22;3.38;;;2.03;;
82560;SDS011;72228;51.208;10.468;2023-11-22T01:21:47;6.13;;;2.72;;
82560;SDS011;72228;51.208;10.468;2023-11-22T01:24:13;3.97;;;2.45;;
82560;SDS011;72228;51.208;10.468;2023-11-22T01:26:39;3.83;;;2.10;;
82560;SDS011;72228;51.208;10.468;2023-11-22T01:29:05;4.03;;;2.58;;
82560;SDS011;72228;51.208;10.468;2023-11-22T01:31:31;4.75;;;3.22;;
82560;SDS011;72228;51.208;10.468;2023-11-22T01:34:01;3.30;;;2.53;;
82560;SDS011;72228;51.208;10.468;2023-11-22T01:36:29;4.53;;;2.50;;
82560;SDS011;72228;51.208;10.468;2023-11-22T01:38:55;4.35;;;2.33;;
82560;SDS011;72228;51.208;10.468;2023-11-22T01:41:22;3.85;;;2.50;;
82560;SDS011;72228;51.208;10.468;2023-11-22T01:43:48;2.50;;;1.77;;
82560;SDS011;72228;51.208;10.468;2023-11-22T01:46:23;3.40;;;2.08;;
82560;SDS011;72228;51.208;10.468;2023-11-22T01:48:50;8.40;;;2.78;;
82560;SDS011;72228;51.208;10.468;2023-11-22T01:51:21;3.95;;;2.10;;
82560;SDS011;72228;51.208;10.468;2023-11-22T01:53:48;4.55;;;2.47;;
82560;SDS011;72228;51.208;10.468;2023-11-22T01:56:19;2.70;;;2.08;;
82560;SDS011;72228;51.208;10.468;2023-11-22T01:58:46;2.67;;;1.85;;
82560;SDS011;72228;51.208;10.468;2023-11-22T02:01:13;3.53;;;2.33;;
82560;SDS011;72228;51.208;10.468;2023-11-22T02:03:39;4.50;;;2.17;;
82560;SDS011;72228;51.208;10.468;2023-11-22T02:06:05;3.10;;;1.83;;
82560;SDS011;72228;51.208;10.468;2023-11-22T02:08:32;4.63;;;2.42;;
82560;SDS011;72228;51.208;10.468;2023-11-22T02:10:58;5.75;;;2.63;;
82560;SDS011;72228;51.208;10.468;2023-11-22T02:13:24;3.53;;;2.35;;
82560;SDS011;72228;51.208;10.468;2023-11-22T02:15:51;4.22;;;1.80;;
82560;SDS011;72228;51.208;10.468;2023-11-22T02:18:30;5.47;;;2.58;;
82560;SDS011;72228;51.208;10.468;2023-11-22T02:20:56;3.60;;;1.83;;
82560;SDS011;72228;51.208;10.468;2023-11-22T02:23:22;3.53;;;1.92;;
82560;SDS011;72228;51.208;10.468;2023-11-22T02:25:49;3.67;;;2.22;;
82560;SDS011;72228;51.208;10.468;2023-11-22T02:28:14;3.63;;;1.92;;
82560;SDS011;72228;51.208;10.468;2023-11-22T02:30:41;3.55;;;2.28;;
82560;SDS011;72228;51.208;10.468;2023-11-22T02:33:07;4.13;;;2.25;;
82560;SDS011;72228;51.208;10.468;2023-11-22T02:35:33;4.53;;;2.25;;
82560;SDS011;72228;51.208;10.468;2023-11-22T02:37:59;5.25;;;2.45;;
82560;SDS011;72228;51.208;10.468;2023-11-22T02:40:26;5.57;;;2.63;;
82560;SDS011;72228;51.208;10.468;2023-11-22T02:42:53;5.43;;;2.92;;
82560;SDS011;72228;51.208;10.468;2023-11-22T02:45:25;4.78;;;2.15;;
82560;SDS011;72228;51.208;10.468;2023-11-22T02:47:53;5.22;;;2.90;;
82560;SDS011;72228;51.208;10.468;2023-11-22T02:50:20;3.47;;;2.13;;
82560;SDS011;72228;51.208;10.468;2023-11-22T02:52:46;4.97;;;2.85;;
82560;SDS011;72228;51.208;10.468;2023-11-22T02:55:12;4.78;;;2.40;;
82560;SDS011;72228;51.208;10.468;2023-11-22T02:57:38;5.43;;;2.55;;
82560;SDS011;72228;51.208;10.468;2023-11-22T03:00:08;3.53;;;2.20;;
82560;SDS011;72228;51.208;10.468;2023-11-22T03:02:38;3.33;;;2.08;;
82560;SDS011;72228;51.208;10.468;2023-11-22T03:05:09;3.78;;;2.17;;
82560;SDS011;72228;51.208;10.468;2023-11-22T03:07:35;4.13;;;2.47;;
82560;SDS011;72228;51.208;10.468;2023-11-22T03:10:02;3.20;;;1.70;;
82560;SDS011;72228;51.208;10.468;2023-11-22T03:12:28;7.05;;;3.00;;
82560;SDS011;72228;51.208;10.468;2023-11-22T03:14:54;2.67;;;1.80;;
82560;SDS011;72228;51.208;10.468;2023-11-22T03:17:29;4.95;;;2.63;;
82560;SDS011;72228;51.208;10.468;2023-11-22T03:19:55;4.20;;;2.38;;
82560;SDS011;72228;51.208;10.468;2023-11-22T03:22:31;3.42;;;2.63;;
82560;SDS011;72228;51.208;10.468;2023-11-22T03:25:01;4.68;;;2.42;;
82560;SDS011;72228;51.208;10.468;2023-11-22T03:27:28;5.57;;;2.13;;
82560;SDS011;72228;51.208;10.468;2023-11-22T03:29:53;3.58;;;2.08;;
82560;SDS011;72228;51.208;10.468;2023-11-22T03:32:21;4.03;;;1.77;;
82560;SDS011;72228;51.208;10.468;2023-11-22T03:34:47;4.85;;;2.65;;
82560;SDS011;72228;51.208;10.468;2023-11-22T03:37:13;3.40;;;2.40;;
82560;SDS011;72228;51.208;10.468;2023-11-22T03:39:39;2.92;;;2.38;;
82560;SDS011;72228;51.208;10.468;2023-11-22T03:42:07;4.53;;;2.67;;
82560;SDS011;72228;51.208;10.468;2023-11-22T03:44:33;4.65;;;2.63;;
82560;SDS011;72228;51.208;10.468;2023-11-22T03:46:59;4.03;;;2.15;;
82560;SDS011;72228;51.208;10.468;2023-11-22T03:49:25;2.90;;;1.73;;
82560;SDS011;72228;51.208;10.468;2023-11-22T03:51:50;4.50;;;2.47;;
82560;SDS011;72228;51.208;10.468;2023-11-22T03:54:16;4.35;;;1.77;;
82560;SDS011;72228;51.208;10.468;2023-11-22T03:56:42;2.60;;;1.70;;
82560;SDS011;72228;51.208;10.468;2023-11-22T03:59:09;0.80;;;0.73;;
82560;SDS011;72228;51.208;10.468;2023-11-22T04:01:35;3.75;;;2.15;;
82560;SDS011;72228;51.208;10.468;2023-11-22T04:04:01;5.50;;;2.63;;
82560;SDS011;72228;51.208;10.468;2023-11-22T04:06:27;3.30;;;2.33;;
82560;SDS011;72228;51.208;10.468;2023-11-22T04:08:53;5.00;;;2.55;;
82560;SDS011;72228;51.208;10.468;2023-11-22T04:11:19;6.05;;;2.15;;
82560;SDS011;72228;51.208;10.468;2023-11-22T04:13:44;5.43;;;2.50;;
82560;SDS011;72228;51.208;10.468;2023-11-22T04:16:10;7.40;;;3.00;;
82560;SDS011;72228;51.208;10.468;2023-11-22T04:18:39;5.13;;;1.98;;
82560;SDS011;72228;51.208;10.468;2023-11-22T04:21:06;5.80;;;2.85;;
82560;SDS011;72228;51.208;10.468;2023-11-22T04:23:33;4.78;;;2.28;;
82560;SDS011;72228;51.208;10.468;2023-11-22T04:25:59;6.15;;;2.63;;
82560;SDS011;72228;51.208;10.468;2023-11-22T04:28:26;4.68;;;2.60;;
82560;SDS011;72228;51.208;10.468;2023-11-22T04:30:52;2.95;;;2.17;;
82560;SDS011;72228;51.208;10.468;2023-11-22T04:33:19;2.90;;;2.15;;
82560;SDS011;72228;51.208;10.468;2023-11-22T04:35:46;3.28;;;2.03;;
82560;SDS011;72228;51.208;10.468;2023-11-22T04:38:13;3.90;;;2.70;;
82560;SDS011;72228;51.208;10.468;2023-11-22T04:40:39;5.40;;;2.88;;
82560;SDS011;72228;51.208;10.468;2023-11-22T04:43:04;4.57;;;2.38;;
82560;SDS011;72228;51.208;10.468;2023-11-22T04:45:30;3.60;;;2.25;;
82560;SDS011;72228;51.208;10.468;2023-11-22T04:47:56;5.43;;;2.67;;
82560;SDS011;72228;51.208;10.468;2023-11-22T04:50:22;4.63;;;3.00;;
82560;SDS011;72228;51.208;10.468;2023-11-22T04:52:49;8.40;;;2.85;;
82560;SDS011;72228;51.208;10.468;2023-11-22T04:55:15;2.63;;;2.15;;
82560;SDS011;72228;51.208;10.468;2023-11-22T04:57:41;3.30;;;2.22;;
82560;SDS011;72228;51.208;10.468;2023-11-22T05:00:07;6.80;;;2.42;;
82560;SDS011;72228;51.208;10.468;2023-11-22T05:02:34;3.78;;;2.60;;
82560;SDS011;72228;51.208;10.468;2023-11-22T05:05:00;4.35;;;2.78;;
82560;SDS011;72228;51.208;10.468;2023-11-22T05:07:26;6.53;;;3.13;;
82560;SDS011;72228;51.208;10.468;2023-11-22T05:09:52;3.58;;;2.95;;
82560;SDS011;72228;51.208;10.468;2023-11-22T05:12:18;6.50;;;2.63;;
82560;SDS011;72228;51.208;10.468;2023-11-22T05:14:44;7.57;;;3.17;;
82560;SDS011;72228;51.208;10.468;2023-11-22T05:17:11;5.00;;;3.28;;
82560;SDS011;72228;51.208;10.468;2023-11-22T05:19:56;5.65;;;3.67;;
82560;SDS011;72228;51.208;10.468;2023-11-22T05:22:22;4.50;;;2.85;;
82560;SDS011;72228;51.208;10.468;2023-11-22T05:24:48;4.65;;;2.75;;
82560;SDS011;72228;51.208;10.468;2023-11-22T05:27:14;10.65;;;3.30;;
82560;SDS011;72228;51.208;10.468;2023-11-22T05:29:40;6.55;;;3.58;;
82560;SDS011;72228;51.208;10.468;2023-11-22T05:32:06;4.82;;;2.60;;
82560;SDS011;72228;51.208;10.468;2023-11-22T05:34:32;5.13;;;2.95;;
82560;SDS011;72228;51.208;10.468;2023-11-22T05:36:58;5.28;;;2.58;;
82560;SDS011;72228;51.208;10.468;2023-11-22T05:39:24;5.97;;;3.05;;
82560;SDS011;72228;51.208;10.468;2023-11-22T05:41:50;9.65;;;3.20;;
82560;SDS011;72228;51.208;10.468;2023-11-22T05:44:17;6.25;;;2.70;;
82560;SDS011;72228;51.208;10.468;2023-11-22T05:46:42;4.07;;;2.50;;
82560;SDS011;72228;51.208;10.468;2023-11-22T05:49:08;2.80;;;2.17;;
82560;SDS011;72228;51.208;10.468;2023-11-22T05:51:36;5.70;;;2.22;;
82560;SDS011;72228;51.208;10.468;2023-11-22T05:54:03;3.97;;;2.65;;
82560;SDS011;72228;51.208;10.468;2023-11-22T05:56:29;3.33;;;2.08;;
82560;SDS011;72228;51.208;10.468;2023-11-22T05:58:55;7.53;;;2.88;;
82560;SDS011;72228;51.208;10.468;2023-11-22T06:01:20;3.75;;;2.17;;
82560;SDS011;72228;51.208;10.468;2023-11-22T06:03:47;4.50;;;2.33;;
82560;SDS011;72228;51.208;10.468;2023-11-22T06:06:13;4.05;;;2.25;;
82560;SDS011;72228;51.208;10.468;2023-11-22T06:08:39;5.50;;;2.83;;
82560;SDS011;72228;51.208;10.468;2023-11-22T06:11:05;6.28;;;2.95;;
82560;SDS011;72228;51.208;10.468;2023-11-22T06:13:32;5.85;;;2.65;;
82560;SDS011;72228;51.208;10.468;2023-11-22T06:15:58;4.50;;;2.75;;
82560;SDS011;72228;51.208;10.468;2023-11-22T06:18:24;3.40;;;2.10;;
82560;SDS011;72228;51.208;10.468;2023-11-22T06:20:58;4.18;;;2.30;;
82560;SDS011;72228;51.208;10.468;2023-11-22T06:23:24;5.57;;;2.78;;
82560;SDS011;72228;51.208;10.468;2023-11-22T06:25:50;8.80;;;3.03;;
82560;SDS011;72228;51.208;10.468;2023-11-22T06:28:15;5.65;;;3.42;;
82560;SDS011;72228;51.208;10.468;2023-11-22T06:30:41;13.63;;;4.63;;
82560;SDS011;72228;51.208;10.468;2023-11-22T06:33:07;11.82;;;6.10;;
82560;SDS011;72228;51.208;10.468;2023-11-22T06:35:34;10.95;;;4.05;;
82560;SDS011;72228;51.208;10.468;2023-11-22T06:37:59;7.57;;;4.43;;
82560;SDS011;72228;51.208;10.468;2023-11-22T06:40:25;12.07;;;4.30;;
82560;SDS011;72228;51.208;10.468;2023-11-22T06:42:51;12.43;;;3.90;;
82560;SDS011;72228;51.208;10.468;2023-11-22T06:45:17;7.32;;;4.13;;
82560;SDS011;72228;51.208;10.468;2023-11-22T06:47:43;4.82;;;2.75;;
82560;SDS011;72228;51.208;10.468;2023-11-22T06:50:10;4.10;;;2.85;;
82560;SDS011;72228;51.208;10.468;2023-11-22T06:52:39;7.35;;;2.53;;
82560;SDS011;72228;51.208;10.468;2023-11-22T06:55:06;5.07;;;3.45;;
82560;SDS011;72228;51.208;10.468;2023-11-22T06:57:33;4.70;;;2.97;;
82560;SDS011;72228;51.208;10.468;2023-11-22T07:00:00;4.47;;;2.85;;
82560;SDS011;72228;51.208;10.468;2023-11-22T07:02:35;3.80;;;2.28;;
82560;SDS011;72228;51.208;10.468;2023-11-22T07:05:02;6.53;;;2.85;;
82560;SDS011;72228;51.208;10.468;2023-11-22T07:07:30;6.90;;;3.13;;
82560;SDS011;72228;51.208;10.468;2023-11-22T07:09:56;5.07;;;2.70;;
82560;SDS011;72228;51.208;10.468;2023-11-22T07:12:24;6.22;;;2.75;;
82560;SDS011;72228;51.208;10.468;2023-11-22T07:14:50;7.97;;;3.10;;
82560;SDS011;72228;51.208;10.468;2023-11-22T07:17:16;8.00;;;3.45;;
82560;SDS011;72228;51.208;10.468;2023-11-22T07:19:47;3.45;;;2.58;;
82560;SDS011;72228;51.208;10.468;2023-11-22T07:22:14;4.50;;;2.30;;
82560;SDS011;72228;51.208;10.468;2023-11-22T07:24:45;6.25;;;3.20;;
82560;SDS011;72228;51.208;10.468;2023-11-22T07:27:13;5.50;;;3.47;;
82560;SDS011;72228;51.208;10.468;2023-11-22T07:29:40;5.88;;;3.40;;
82560;SDS011;72228;51.208;10.468;2023-11-22T07:32:09;6.40;;;3.28;;
82560;SDS011;72228;51.208;10.468;2023-11-22T07:34:36;7.07;;;3.67;;
82560;SDS011;72228;51.208;10.468;2023-11-22T07:37:04;4.28;;;3.00;;
82560;SDS011;72228;51.208;10.468;2023-11-22T07:39:33;6.18;;;3.17;;
82560;SDS011;72228;51.208;10.468;2023-11-22T07:42:03;4.13;;;2.15;;
82560;SDS011;72228;51.208;10.468;2023-11-22T07:44:33;5.90;;;3.03;;
82560;SDS011;72228;51.208;10.468;2023-11-22T07:47:04;6.15;;;3.28;;
82560;SDS011;72228;51.208;10.468;2023-11-22T07:49:34;4.60;;;2.80;;
82560;SDS011;72228;51.208;10.468;2023-11-22T07:54:30;2.78;;;2.15;;
82560;SDS011;72228;51.208;10.468;2023-11-22T07:56:55;6.18;;;3.58;;
82560;SDS011;72228;51.208;10.468;2023-11-22T07:59:21;5.43;;;3.17;;
82560;SDS011;72228;51.208;10.468;2023-11-22T08:01:48;8.15;;;3.47;;
82560;SDS011;72228;51.208;10.468;2023-11-22T08:04:14;5.30;;;3.05;;
82560;SDS011;72228;51.208;10.468;2023-11-22T08:06:42;10.88;;;2.95;;
82560;SDS011;72228;51.208;10.468;2023-11-22T08:09:08;7.15;;;3.75;;
82560;SDS011;72228;51.208;10.468;2023-11-22T08:11:35;6.43;;;3.78;;
82560;SDS011;72228;51.208;10.468;2023-11-22T08:14:04;5.38;;;2.78;;
82560;SDS011;72228;51.208;10.468;2023-11-22T08:16:31;5.03;;;2.58;;
82560;SDS011;72228;51.208;10.468;2023-11-22T08:18:57;7.72;;;2.80;;
82560;SDS011;72228;51.208;10.468;2023-11-22T08:21:23;6.43;;;3.63;;
82560;SDS011;72228;51.208;10.468;2023-11-22T08:23:50;6.53;;;3.30;;
82560;SDS011;72228;51.208;10.468;2023-11-22T08:26:16;6.20;;;2.97;;
82560;SDS011;72228;51.208;10.468;2023-11-22T08:28:42;9.40;;;4.45;;
82560;SDS011;72228;51.208;10.468;2023-11-22T08:31:08;6.00;;;3.58;;
82560;SDS011;72228;51.208;10.468;2023-11-22T08:33:38;8.13;;;3.20;;
82560;SDS011;72228;51.208;10.468;2023-11-22T08:36:05;8.75;;;3.45;;
82560;SDS011;72228;51.208;10.468;2023-11-22T08:38:32;5.10;;;3.05;;
82560;SDS011;72228;51.208;10.468;2023-11-22T08:43:33;6.75;;;3.85;;
82560;SDS011;72228;51.208;10.468;2023-11-22T08:45:59;8.60;;;3.42;;
82560;SDS011;72228;51.208;10.468;2023-11-22T08:48:25;7.45;;;3.67;;
82560;SDS011;72228;51.208;10.468;2023-11-22T08:50:51;3.28;;;2.42;;
82560;SDS011;72228;51.208;10.468;2023-11-22T08:53:20;6.38;;;3.90;;
82560;SDS011;72228;51.208;10.468;2023-11-22T08:55:47;13.13;;;3.60;;
82560;SDS011;72228;51.208;10.468;2023-11-22T08:58:13;4.93;;;2.22;;
82560;SDS011;72228;51.208;10.468;2023-11-22T09:00:39;4.20;;;2.40;;
82560;SDS011;72228;51.208;10.468;2023-11-22T09:03:07;3.67;;;2.53;;
82560;SDS011;72228;51.208;10.468;2023-11-22T09:05:36;4.93;;;3.67;;
82560;SDS011;72228;51.208;10.468;2023-11-22T09:08:02;5.60;;;2.83;;
82560;SDS011;72228;51.208;10.468;2023-11-22T09:10:29;4.53;;;3.08;;
82560;SDS011;72228;51.208;10.468;2023-11-22T09:12:56;8.05;;;3.97;;
82560;SDS011;72228;51.208;10.468;2023-11-22T09:15:24;5.63;;;3.22;;
82560;SDS011;72228;51.208;10.468;2023-11-22T09:17:55;7.97;;;3.83;;
82560;SDS011;72228;51.208;10.468;2023-11-22T09:20:21;7.88;;;3.47;;
82560;SDS011;72228;51.208;10.468;2023-11-22T09:22:48;8.15;;;3.13;;
82560;SDS011;72228;51.208;10.468;2023-11-22T09:25:19;5.93;;;3.08;;
82560;SDS011;72228;51.208;10.468;2023-11-22T09:27:46;5.40;;;3.05;;
82560;SDS011;72228;51.208;10.468;2023-11-22T09:30:14;4.03;;;2.85;;
82560;SDS011;72228;51.208;10.468;2023-11-22T09:33:13;6.32;;;2.72;;
82560;SDS011;72228;51.208;10.468;2023-11-22T09:35:41;4.25;;;2.75;;
82560;SDS011;72228;51.208;10.468;2023-11-22T09:38:09;5.15;;;2.88;;
82560;SDS011;72228;51.208;10.468;2023-11-22T09:40:46;6.82;;;2.88;;
82560;SDS011;72228;51.208;10.468;2023-11-22T09:43:15;6.50;;;3.15;;
82560;SDS011;72228;51.208;10.468;2023-11-22T09:45:49;4.80;;;2.90;;
82560;SDS011;72228;51.208;10.468;2023-11-22T09:48:19;5.40;;;2.22;;
82560;SDS011;72228;51.208;10.468;2023-11-22T09:55:57;6.07;;;3.45;;
82560;SDS011;72228;51.208;10.468;2023-11-22T09:58:24;8.23;;;3.50;;
82560;SDS011;72228;51.208;10.468;2023-11-22T10:00:51;11.35;;;4.35;;
82560;SDS011;72228;51.208;10.468;2023-11-22T10:03:18;3.38;;;2.53;;
82560;SDS011;72228;51.208;10.468;2023-11-22T10:05:45;5.15;;;3.25;;
82560;SDS011;72228;51.208;10.468;2023-11-22T10:08:11;7.93;;;3.53;;
82560;SDS011;72228;51.208;10.468;2023-11-22T10:10:37;5.07;;;3.13;;
82560;SDS011;72228;51.208;10.468;2023-11-22T10:13:22;7.15;;;4.13;;
82560;SDS011;72228;51.208;10.468;2023-11-22T10:15:48;8.10;;;3.40;;
82560;SDS011;72228;51.208;10.468;2023-11-22T10:18:15;4.57;;;2.90;;
82560;SDS011;72228;51.208;10.468;2023-11-22T10:20:43;5.95;;;2.95;;
82560;SDS011;72228;51.208;10.468;2023-11-22T10:23:17;7.30;;;3.42;;
82560;SDS011;72228;51.208;10.468;2023-11-22T10:28:15;7.22;;;4.13;;
82560;SDS011;72228;51.208;10.468;2023-11-22T10:30:48;6.65;;;3.53;;
82560;SDS011;72228;51.208;10.468;2023-11-22T10:33:15;5.05;;;3.05;;
82560;SDS011;72228;51.208;10.468;2023-11-22T10:35:49;11.07;;;4.80;;
82560;SDS011;72228;51.208;10.468;2023-11-22T10:38:19;6.55;;;3.83;;
82560;SDS011;72228;51.208;10.468;2023-11-22T10:40:46;7.18;;;3.50;;
82560;SDS011;72228;51.208;10.468;2023-11-22T10:43:13;5.95;;;3.53;;
82560;SDS011;72228;51.208;10.468;2023-11-22T10:45:41;6.40;;;3.70;;
82560;SDS011;72228;51.208;10.468;2023-11-22T10:48:17;6.95;;;3.33;;
82560;SDS011;72228;51.208;10.468;2023-11-22T10:50:47;10.93;;;3.95;;
82560;SDS011;72228;51.208;10.468;2023-11-22T10:53:15;9.45;;;3.85;;
82560;SDS011;72228;51.208;10.468;2023-11-22T10:55:46;6.65;;;3.65;;
82560;SDS011;72228;51.208;10.468;2023-11-22T10:58:14;7.07;;;3.70;;
82560;SDS011;72228;51.208;10.468;2023-11-22T11:00:41;4.93;;;3.20;;
82560;SDS011;72228;51.208;10.468;2023-11-22T11:03:17;5.32;;;3.28;;
82560;SDS011;72228;51.208;10.468;2023-11-22T11:05:54;7.43;;;3.88;;
82560;SDS011;72228;51.208;10.468;2023-11-22T11:08:29;4.15;;;2.95;;
82560;SDS011;72228;51.208;10.468;2023-11-22T11:10:57;6.60;;;3.80;;
82560;SDS011;72228;51.208;10.468;2023-11-22T11:13:25;5.38;;;3.60;;
82560;SDS011;72228;51.208;10.468;2023-11-22T11:15:53;4.35;;;3.90;;
82560;SDS011;72228;51.208;10.468;2023-11-22T11:18:19;5.70;;;3.35;;
82560;SDS011;72228;51.208;10.468;2023-11-22T11:20:52;7.53;;;4.50;;
82560;SDS011;72228;51.208;10.468;2023-11-22T11:25:48;5.38;;;3.00;;
82560;SDS011;72228;51.208;10.468;2023-11-22T11:28:15;6.82;;;3.85;;
82560;SDS011;72228;51.208;10.468;2023-11-22T11:30:45;5.90;;;3.47;;
82560;SDS011;72228;51.208;10.468;2023-11-22T11:33:14;6.82;;;3.40;;
82560;SDS011;72228;51.208;10.468;2023-11-22T11:38:13;4.35;;;2.75;;
82560;SDS011;72228;51.208;10.468;2023-11-22T11:40:42;6.05;;;4.07;;
82560;SDS011;72228;51.208;10.468;2023-11-22T11:43:10;5.90;;;3.47;;
82560;SDS011;72228;51.208;10.468;2023-11-22T11:45:40;8.77;;;3.70;;
82560;SDS011;72228;51.208;10.468;2023-11-22T11:48:15;8.10;;;3.78;;
82560;SDS011;72228;51.208;10.468;2023-11-22T11:50:42;5.55;;;4.05;;
82560;SDS011;72228;51.208;10.468;2023-11-22T11:53:09;5.75;;;2.95;;
82560;SDS011;72228;51.208;10.468;2023-11-22T11:55:39;5.93;;;3.38;;
82560;SDS011;72228;51.208;10.468;2023-11-22T11:58:05;5.45;;;3.58;;
82560;SDS011;72228;51.208;10.468;2023-11-22T12:00:36;5.43;;;3.60;;
82560;SDS011;72228;51.208;10.468;2023-11-22T12:03:06;9.48;;;4.07;;
82560;SDS011;72228;51.208;10.468;2023-11-22T12:05:36;6.35;;;3.75;;
82560;SDS011;72228;51.208;10.468;2023-11-22T12:08:02;6.05;;;3.65;;
82560;SDS011;72228;51.208;10.468;2023-11-22T12:10:28;6.03;;;3.95;;
82560;SDS011;72228;51.208;10.468;2023-11-22T12:12:55;4.80;;;3.47;;
82560;SDS011;72228;51.208;10.468;2023-11-22T12:15:21;7.43;;;3.88;;
82560;SDS011;72228;51.208;10.468;2023-11-22T12:17:50;6.07;;;3.58;;
82560;SDS011;72228;51.208;10.468;2023-11-22T12:20:17;9.85;;;4.13;;
82560;SDS011;72228;51.208;10.468;2023-11-22T12:22:43;4.78;;;3.28;;
82560;SDS011;72228;51.208;10.468;2023-11-22T12:25:11;12.20;;;4.47;;
82560;SDS011;72228;51.208;10.468;2023-11-22T12:27:38;7.38;;;4.35;;
82560;SDS011;72228;51.208;10.468;2023-11-22T12:30:05;4.68;;;3.28;;
82560;SDS011;72228;51.208;10.468;2023-11-22T12:32:32;4.95;;;3.50;;
82560;SDS011;72228;51.208;10.468;2023-11-22T12:34:58;4.25;;;3.35;;
82560;SDS011;72228;51.208;10.468;2023-11-22T12:37:26;5.78;;;3.70;;
82560;SDS011;72228;51.208;10.468;2023-11-22T12:39:54;8.07;;;3.85;;
82560;SDS011;72228;51.208;10.468;2023-11-22T12:42:20;11.93;;;4.20;;
82560;SDS011;72228;51.208;10.468;2023-11-22T12:44:49;5.47;;;3.80;;
82560;SDS011;72228;51.208;10.468;2023-11-22T12:47:32;6.30;;;3.80;;
82560;SDS011;72228;51.208;10.468;2023-11-22T12:50:02;7.75;;;4.50;;
82560;SDS011;72228;51.208;10.468;2023-11-22T12:52:29;5.25;;;3.50;;
82560;SDS011;72228;51.208;10.468;2023-11-22T12:54:58;5.28;;;3.67;;
82560;SDS011;72228;51.208;10.468;2023-11-22T12:57:28;5.82;;;3.50;;
82560;SDS011;72228;51.208;10.468;2023-11-22T12:59:54;4.90;;;3.17;;
82560;SDS011;72228;51.208;10.468;2023-11-22T13:02:19;5.90;;;3.78;;
82560;SDS011;72228;51.208;10.468;2023-11-22T13:04:45;6.65;;;3.78;;
82560;SDS011;72228;51.208;10.468;2023-11-22T13:07:11;8.82;;;4.38;;
82560;SDS011;72228;51.208;10.468;2023-11-22T13:09:37;7.45;;;3.65;;
82560;SDS011;72228;51.208;10.468;2023-11-22T13:12:03;7.80;;;3.70;;
82560;SDS011;72228;51.208;10.468;2023-11-22T13:14:29;6.10;;;3.67;;
82560;SDS011;72228;51.208;10.468;2023-11-22T13:17:01;4.93;;;3.10;;
82560;SDS011;72228;51.208;10.468;2023-11-22T13:19:27;6.07;;;3.92;;
82560;SDS011;72228;51.208;10.468;2023-11-22T13:21:53;5.28;;;3.10;;
82560;SDS011;72228;51.208;10.468;2023-11-22T13:24:18;6.88;;;3.72;;
82560;SDS011;72228;51.208;10.468;2023-11-22T13:26:46;3.92;;;3.22;;
82560;SDS011;72228;51.208;10.468;2023-11-22T13:29:12;7.78;;;3.92;;
82560;SDS011;72228;51.208;10.468;2023-11-22T13:31:38;5.25;;;3.92;;
82560;SDS011;72228;51.208;10.468;2023-11-22T13:34:04;6.30;;;4.32;;
82560;SDS011;72228;51.208;10.468;2023-11-22T13:36:31;7.32;;;3.80;;
82560;SDS011;72228;51.208;10.468;2023-11-22T13:38:57;8.30;;;4.05;;
82560;SDS011;72228;51.208;10.468;2023-11-22T13:41:23;7.00;;;3.65;;
82560;SDS011;72228;51.208;10.468;2023-11-22T13:43:50;4.93;;;3.28;;
82560;SDS011;72228;51.208;10.468;2023-11-22T13:46:16;5.65;;;3.55;;
82560;SDS011;72228;51.208;10.468;2023-11-22T13:48:42;5.28;;;3.30;;
82560;SDS011;72228;51.208;10.468;2023-11-22T13:51:08;3.50;;;3.00;;
82560;SDS011;72228;51.208;10.468;2023-11-22T13:53:36;10.13;;;3.35;;
82560;SDS011;72228;51.208;10.468;2023-11-22T13:56:04;6.22;;;3.33;;
82560;SDS011;72228;51.208;10.468;2023-11-22T13:58:34;4.78;;;3.30;;
82560;SDS011;72228;51.208;10.468;2023-11-22T14:01:01;6.00;;;3.30;;
82560;SDS011;72228;51.208;10.468;2023-11-22T14:03:27;6.50;;;3.88;;
82560;SDS011;72228;51.208;10.468;2023-11-22T14:05:53;7.03;;;3.97;;
82560;SDS011;72228;51.208;10.468;2023-11-22T14:08:19;6.32;;;3.50;;
82560;SDS011;72228;51.208;10.468;2023-11-22T14:10:45;6.40;;;4.53;;
82560;SDS011;72228;51.208;10.468;2023-11-22T14:13:11;8.68;;;4.95;;
82560;SDS011;72228;51.208;10.468;2023-11-22T14:15:37;13.10;;;7.93;;
82560;SDS011;72228;51.208;10.468;2023-11-22T14:18:03;8.27;;;4.45;;
82560;SDS011;72228;51.208;10.468;2023-11-22T14:20:30;9.55;;;4.57;;
82560;SDS011;72228;51.208;10.468;2023-11-22T14:22:56;7.45;;;4.47;;
82560;SDS011;72228;51.208;10.468;2023-11-22T14:25:22;5.03;;;3.25;;
82560;SDS011;72228;51.208;10.468;2023-11-22T14:27:48;5.65;;;3.42;;
82560;SDS011;72228;51.208;10.468;2023-11-22T14:30:20;24.92;;;3.95;;
82560;SDS011;72228;51.208;10.468;2023-11-22T14:32:47;6.47;;;3.85;;
82560;SDS011;72228;51.208;10.468;2023-11-22T14:35:13;6.55;;;3.25;;
82560;SDS011;72228;51.208;10.468;2023-11-22T14:37:39;4.50;;;3.03;;
82560;SDS011;72228;51.208;10.468;2023-11-22T14:40:06;4.68;;;3.30;;
82560;SDS011;72228;51.208;10.468;2023-11-22T14:42:42;5.40;;;4.18;;
82560;SDS011;72228;51.208;10.468;2023-11-22T14:45:10;7.32;;;3.47;;
82560;SDS011;72228;51.208;10.468;2023-11-22T14:50:06;4.72;;;2.90;;
82560;SDS011;72228;51.208;10.468;2023-11-22T14:52:35;9.90;;;3.53;;
82560;SDS011;72228;51.208;10.468;2023-11-22T14:55:01;8.55;;;3.72;;